Sao Vicente Ferrer, Brazil
Current Conditions -  °F | °C
As of 3:00 PM on Wednesday 28 Jan 2015 (Local Time) from SBKG Reporting Station
Scattered Clouds Scattered Clouds  
Wind Chill: 86°   Ceiling: Unl
Heat Index: 87°   Visibility: 6mi
Dew Point: 64°   Wind: 15mph
Humidity: 48%   Direction: 90°E
Pressure: 29.91"   Gusts: NA
Location:  7.59°S, 35.49°W
Report Text: SBKG 281800Z 09013KT 9999 SCT040 30/18 Q1013
Loading
Personal Weather Stations






























Interactive Weather Map New forecast layout! Learn more

10-Day Weather Forecast

Advertisements
Track Severe Weather on mobile